AirNav  
 
 1268 users online  

33NJ Centra State Medical Center Heliport
Freehold, New Jersey, USA

GOING TO FREEHOLD?


FAA INFORMATION EFFECTIVE 25 MARCH 2021

Location

FAA Identifier: 33NJ
Lat/Long: 40-14-12.3800N 074-18-39.5100W
40-14.206333N 074-18.658500W
40.2367722,-74.3109750
(estimated)
Elevation: 169 ft. / 52 m (estimated)
Variation: 12W (1985)
From city: 2 miles W of FREEHOLD, NJ
Time zone: UTC -4 (UTC -5 during Standard Time)
Zip code: 07728

Heliport Operations

Heliport use: Private use. Permission required prior to landing
Activation date: 07/1982
Control tower: no
ARTCC: NEW YORK CENTER
FSS: MILLVILLE FLIGHT SERVICE STATION
Attendance: UNATNDD
Wind indicator: yes
Segmented circle: no

Heliport Communications

WX AWOS-3PT at BLM (9 nm E): 121.625 (732-938-3330)
WX AWOS-AV at N12 (12 nm SE): 122.8 (732-363-6471)
WX AWOS-3PT at MJX (19 nm S): 119.875 (732-797-2542)

Nearby radio navigation aids

VOR radial/distance  VOR name  Freq  Var
COLr248/8.3COLTS NECK VOR/DME115.4011W
RBVr086/8.7ROBBINSVILLE VORTAC113.8010W
GXUr056/18.9MC GUIRE VORTAC110.6012W
CYNr022/25.8COYLE VORTAC113.4010W
ARDr102/27.3YARDLEY VOR/DME108.2010W
SBJr147/28.6SOLBERG VOR/DME112.9010W
CRIr231/29.5CANARSIE VOR/DME112.3011W
JFKr238/34.2KENNEDY VOR/DME115.9012W
TEBr208/38.4TETERBORO VOR/DME108.4011W
LGAr224/38.5LA GUARDIA VOR/DME113.1012W

 
NDB name  Hdg/Dist  Freq  Var  ID
LAKEHURST017/11.639611WNEL -. . .-..
CHATHAM183/30.725413WCAT -.-. .- -

Heliport Services

Runway Information

Helipad H1

Dimensions: 60 x 60 ft. / 18 x 18 m
Surface: asphalt
Latitude: 40-14.206333N
Longitude: 074-18.658500W
Elevation: 169.0 ft.
Traffic pattern: leftleft

Heliport Ownership and Management from official FAA records

Ownership: Privately-owned
Owner: CENTRA STATE MEDICAL CENTER
RT 537
FREEHOLD, NJ 07728
Phone (908) 431-2000
Manager: ROB SWANTEK
901 W. MAIN STREET
FREEHOLD, NJ 07728
Phone (732) 294-2837
DIRECTOR OF SECURITY

Additional Remarks

FOR CD CTC MC GUIRE APCH AT 609-754-2767.

Instrument Procedures

There are no published instrument procedures at 33NJ.

Some nearby airports with instrument procedures:

3N6 - Old Bridge Airport (6 nm N)
KBLM - MonmouthExecutive Airport (9 nm E)
N12 - Lakewood Airport (12 nm SE)
KNEL - Lakehurst Maxfield Field Airport (12 nm S)
N87 - Trenton-Robbinsville Airport (13 nm W)
KWRI - McGuire Field (Joint Base Mc Guire Dix Lakehurst) Airport (18 nm SW)
KMJX - Ocean County Airport (19 nm S)
39N - Princeton Airport (19 nm NW)
 
Loc | Ops | Rwys | IFR | FBO | Links
Com | Nav | Svcs | Stats | Notes
Area around 33NJ (Centra State Medical Center Heliport)
 
Road maps at: MapQuest Bing Google
 
Aerial photo
No photo
 
Sectional chart

 
Airport distance calculator
Flying to Centra State Medical Center Heliport? Find the distance to fly.

From to 33NJ

Sunrise and sunset
Times for 17-Apr-2021
 Local
(UTC-4)
 Zulu
(UTC)
Morning civil twilight05:4909:49
Sunrise06:1710:17
Sunset19:3723:37
Evening civil twilight20:0500:05

Current date and time
Zulu (UTC)  17-Apr-2021 15:38:07
Local (UTC-4)  17-Apr-2021 11:38:07
 
METAR
KBLM 
10nm SE 
AWOS-3 121.625 732-938-3330
171456Z AUTO 30013KT 10SM BKN035 OVC050 10/02 A2980 RMK AO2 SLP091 6//// T01000022 51003 PNO $
KNEL 
13nm S 
171500Z AUTO 33007KT 10SM FEW035 OVC050 16/03 A2979 RMK AO2 SLP084 T01610028 52004 $
KWRI 
18nm SW 
171456Z AUTO 34009KT 10SM OVC050 10/02 A2980 RMK AO2 SLP091 T01020018 50002
KMJX 
19nm S 
AWOS-3 119.875 732-244-4450
171456Z AUTO 34010KT 10SM FEW039 OVC050 11/02 A2980 RMK AO2 SLP094 T01060022 50002
TAF
KWRI 
18nm SW 
171000Z 1710/1816 32010KT 9999 SCT030 BKN040 QNH2974INS TEMPO 1712/1716 33010G15KT BECMG 1716/1717 30008KT 9999 BKN035 QNH2976INS BECMG 1810/1811 30006KT 9999 SCT040 QNH2983INS TX15/1719Z TN05/1809Z
NOTAMs
Click for the latest NOTAMs
NOTAMs are issued by the DoD/FAA and will open in a separate window not controlled by AirNav.

 

 
 

Would you like to see your business listed on this page?

 If your business provides an interesting product or service to pilots, flight crews, aircraft, or users of the Centra State Medical Center Heliport, you should consider listing it here.  To start the listing process, click on the button below
 
Add a business
 

Other Pages about Centra State Medical Center Heliport

Update a link
 
Copyright © AirNav, LLC. All rights reserved. Privacy Policy  Contact